createdAt,value
2022-09-15T00:00:55.636Z,24.17
2022-09-15T00:03:24.728Z,23.15
2022-09-15T00:05:54.478Z,27.00
2022-09-15T00:08:23.118Z,28.48
2022-09-15T00:10:52.514Z,29.40
2022-09-15T00:13:23.150Z,33.15
2022-09-15T00:15:51.378Z,34.58
2022-09-15T00:18:19.417Z,33.13
2022-09-15T00:20:47.570Z,24.67
2022-09-15T00:23:16.771Z,16.85
2022-09-15T00:25:45.923Z,16.45
2022-09-15T00:28:14.871Z,12.15
2022-09-15T00:30:45.669Z,11.20
2022-09-15T00:33:14.751Z,10.18
2022-09-15T00:35:45.411Z,7.40
2022-09-15T00:38:14.855Z,6.85
2022-09-15T00:40:47.751Z,5.72
2022-09-15T00:43:16.884Z,6.40
2022-09-15T00:45:46.458Z,6.28
2022-09-15T00:48:18.041Z,6.35
2022-09-15T00:50:50.143Z,8.02
2022-09-15T00:53:20.141Z,11.45
2022-09-15T00:55:50.543Z,26.55
2022-09-15T00:58:26.297Z,71.07
2022-09-15T01:03:26.248Z,171.07
2022-09-15T01:05:56.143Z,96.13
2022-09-15T01:08:32.775Z,170.07
2022-09-15T01:11:02.622Z,88.28
2022-09-15T01:13:30.746Z,161.07
2022-09-15T01:16:08.910Z,66.88
2022-09-15T01:18:47.466Z,93.70
2022-09-15T01:21:27.557Z,135.38
2022-09-15T01:24:24.570Z,56.38
2022-09-15T01:27:24.107Z,71.70
2022-09-15T01:30:05.423Z,22.98
2022-09-15T01:33:05.976Z,19.33
2022-09-15T01:36:00.959Z,19.83
2022-09-15T01:38:36.225Z,40.28
2022-09-15T01:41:09.199Z,121.43
2022-09-15T01:43:46.751Z,32.47
2022-09-15T01:46:18.021Z,33.25
2022-09-15T01:48:48.248Z,176.52
2022-09-15T01:51:17.864Z,91.60
2022-09-15T01:53:47.185Z,70.38
2022-09-15T01:56:15.585Z,94.22
2022-09-15T01:58:43.718Z,84.35
2022-09-15T02:01:18.565Z,198.52
2022-09-15T02:03:50.345Z,57.30
2022-09-15T02:06:26.824Z,37.08
2022-09-15T02:09:02.593Z,110.25
2022-09-15T02:14:04.221Z,57.35
2022-09-15T02:16:36.203Z,42.47
2022-09-15T02:19:11.522Z,39.50
2022-09-15T02:21:51.039Z,55.05
2022-09-15T02:24:24.043Z,77.68
2022-09-15T02:26:55.048Z,104.97
2022-09-15T02:29:26.223Z,50.28
2022-09-15T02:31:58.016Z,60.35
2022-09-15T02:34:29.553Z,81.90
2022-09-15T02:36:58.114Z,42.60
2022-09-15T02:39:31.903Z,57.60
2022-09-15T02:42:02.339Z,35.63
2022-09-15T02:44:31.695Z,155.00
2022-09-15T02:47:02.621Z,45.03
2022-09-15T02:49:30.620Z,37.08
2022-09-15T02:51:58.690Z,59.63
2022-09-15T02:54:26.604Z,92.13
2022-09-15T02:56:54.469Z,188.48
2022-09-15T02:59:22.467Z,31.20
2022-09-15T03:01:51.978Z,114.32
2022-09-15T03:04:21.466Z,117.00
2022-09-15T03:06:49.342Z,175.23
2022-09-15T03:09:17.210Z,107.75
2022-09-15T03:11:45.142Z,30.20
2022-09-15T03:14:13.023Z,47.50
2022-09-15T03:16:41.004Z,150.63
2022-09-15T03:19:08.908Z,93.10
2022-09-15T03:21:38.161Z,87.13
2022-09-15T03:24:06.368Z,42.05
2022-09-15T03:26:34.441Z,49.08
2022-09-15T03:29:02.394Z,43.65
2022-09-15T03:31:30.524Z,49.05
2022-09-15T03:33:58.456Z,48.67
2022-09-15T03:36:26.330Z,51.95
2022-09-15T03:38:56.937Z,48.05
2022-09-15T03:41:25.898Z,51.97
2022-09-15T03:43:53.948Z,46.65
2022-09-15T03:46:22.053Z,54.63
2022-09-15T03:48:49.952Z,48.53
2022-09-15T03:51:17.907Z,53.80
2022-09-15T03:53:45.795Z,49.03
2022-09-15T03:56:22.768Z,52.03
2022-09-15T03:58:50.756Z,52.10
2022-09-15T04:01:19.343Z,51.92
2022-09-15T04:03:50.839Z,48.15
2022-09-15T04:06:20.008Z,40.50
2022-09-15T04:08:48.443Z,41.83
2022-09-15T04:11:19.864Z,39.90
2022-09-15T04:13:48.123Z,36.33
2022-09-15T04:16:18.567Z,28.15
2022-09-15T04:18:46.611Z,29.77
2022-09-15T04:21:17.759Z,27.88
2022-09-15T04:23:46.789Z,28.80
2022-09-15T04:26:20.047Z,34.40
2022-09-15T04:28:48.418Z,30.42
2022-09-15T04:31:17.498Z,33.10
2022-09-15T04:33:46.262Z,26.05
2022-09-15T04:36:16.304Z,28.30
2022-09-15T04:38:44.550Z,27.77
2022-09-15T04:41:12.818Z,28.25
2022-09-15T04:43:43.270Z,32.92
2022-09-15T04:46:12.183Z,32.70
2022-09-15T04:48:40.287Z,30.55
2022-09-15T04:51:11.244Z,25.95
2022-09-15T04:53:39.463Z,30.15
2022-09-15T04:56:10.118Z,31.33
2022-09-15T04:58:39.269Z,33.28
2022-09-15T05:01:14.009Z,32.72
2022-09-15T05:03:42.711Z,32.15
2022-09-15T05:06:12.275Z,33.05
2022-09-15T05:08:40.529Z,33.15
2022-09-15T05:11:11.190Z,32.92
2022-09-15T05:13:40.872Z,31.23
2022-09-15T05:16:13.183Z,34.05
2022-09-15T05:18:42.835Z,36.15
2022-09-15T05:21:13.427Z,38.35
2022-09-15T05:23:42.264Z,38.97
2022-09-15T05:26:13.706Z,35.28
2022-09-15T05:28:42.102Z,34.70
2022-09-15T05:31:13.412Z,35.50
2022-09-15T05:33:41.333Z,35.28
2022-09-15T05:36:09.461Z,33.22
2022-09-15T05:38:37.718Z,32.63
2022-09-15T05:41:07.273Z,31.90
2022-09-15T05:43:36.409Z,30.55
2022-09-15T05:46:05.198Z,28.88
2022-09-15T05:48:35.013Z,29.70
2022-09-15T05:51:03.343Z,25.20
2022-09-15T05:53:32.452Z,26.85
2022-09-15T05:56:03.100Z,22.55
2022-09-15T05:58:31.535Z,22.75
2022-09-15T06:01:05.469Z,27.30
2022-09-15T06:03:35.589Z,24.42
2022-09-15T06:06:05.782Z,21.38
2022-09-15T06:08:35.024Z,16.95
2022-09-15T06:11:04.894Z,17.05
2022-09-15T06:13:33.316Z,20.80
2022-09-15T06:16:06.562Z,19.52
2022-09-15T06:18:37.388Z,18.58
2022-09-15T06:21:07.718Z,20.80
2022-09-15T06:23:36.135Z,21.70
2022-09-15T06:26:11.292Z,18.98
2022-09-15T06:28:40.195Z,13.20
2022-09-15T06:31:12.297Z,16.70
2022-09-15T06:33:45.467Z,16.70
2022-09-15T06:36:13.987Z,11.10
2022-09-15T06:38:42.700Z,13.88
2022-09-15T06:41:11.495Z,11.48
2022-09-15T06:43:40.146Z,14.77
2022-09-15T06:46:09.781Z,14.75
2022-09-15T06:48:38.796Z,15.70
2022-09-15T06:51:09.594Z,14.07
2022-09-15T06:53:39.144Z,20.67
2022-09-15T06:56:09.011Z,38.60
2022-09-15T06:58:38.277Z,30.60
2022-09-15T07:01:09.406Z,50.38
2022-09-15T07:03:38.301Z,51.92
2022-09-15T07:06:08.979Z,54.30
2022-09-15T07:08:36.959Z,57.63
2022-09-15T07:11:05.503Z,70.80
2022-09-15T07:13:33.689Z,75.30
2022-09-15T07:16:04.395Z,68.65
2022-09-15T07:18:33.506Z,68.93
2022-09-15T07:21:03.233Z,59.65
2022-09-15T07:23:33.280Z,57.03
2022-09-15T07:26:09.791Z,62.97
2022-09-15T07:28:38.295Z,60.28
2022-09-15T07:31:08.029Z,64.05
2022-09-15T07:33:36.547Z,61.03
2022-09-15T07:36:05.372Z,53.38
2022-09-15T07:38:35.136Z,51.60
2022-09-15T07:41:06.750Z,51.17
2022-09-15T07:43:35.039Z,41.97
2022-09-15T07:46:04.047Z,42.13
2022-09-15T07:48:31.993Z,43.05
2022-09-15T07:51:00.325Z,43.72
2022-09-15T07:53:29.437Z,38.67
2022-09-15T07:55:58.848Z,41.20
2022-09-15T07:58:26.869Z,44.90
2022-09-15T08:00:54.888Z,37.92
2022-09-15T08:03:23.015Z,38.10
2022-09-15T08:05:50.931Z,38.30
2022-09-15T08:08:18.845Z,34.25
2022-09-15T08:10:46.847Z,41.70
2022-09-15T08:13:16.124Z,35.33
2022-09-15T08:15:45.036Z,38.42
2022-09-15T08:18:13.428Z,32.63
2022-09-15T08:20:41.756Z,37.70
2022-09-15T08:23:10.637Z,26.00
2022-09-15T08:25:39.413Z,24.13
2022-09-15T08:28:08.250Z,21.95
2022-09-15T08:30:37.575Z,24.15
2022-09-15T08:33:05.586Z,18.05
2022-09-15T08:35:34.365Z,18.13
2022-09-15T08:38:02.234Z,20.23
2022-09-15T08:40:33.803Z,20.98
2022-09-15T08:43:07.260Z,23.98
2022-09-15T08:45:47.382Z,20.45
2022-09-15T08:48:18.371Z,21.05
2022-09-15T08:50:49.869Z,23.92
2022-09-15T08:53:21.331Z,21.67
2022-09-15T08:55:51.354Z,19.90
2022-09-15T08:58:21.589Z,20.27
2022-09-15T09:00:52.971Z,19.50
2022-09-15T09:03:39.711Z,20.65
2022-09-15T09:06:17.975Z,21.55
2022-09-15T09:09:01.334Z,18.75
2022-09-15T09:11:48.333Z,18.15
2022-09-15T09:14:22.711Z,18.25
2022-09-15T09:17:07.928Z,17.67
2022-09-15T09:19:58.697Z,19.00
2022-09-15T09:22:30.609Z,18.45
2022-09-15T09:25:11.590Z,23.77
2022-09-15T09:27:44.248Z,26.17
2022-09-15T09:30:16.361Z,19.15
2022-09-15T09:32:51.011Z,23.48
2022-09-15T09:35:25.810Z,21.88
2022-09-15T09:37:54.742Z,25.25
2022-09-15T09:40:23.533Z,20.27
2022-09-15T09:42:51.432Z,17.45
2022-09-15T09:45:20.690Z,16.67
2022-09-15T09:47:50.180Z,21.25
2022-09-15T09:50:39.655Z,27.42
2022-09-15T09:53:32.817Z,24.23
2022-09-15T09:56:19.078Z,23.27
2022-09-15T10:01:16.562Z,16.52
2022-09-15T10:03:46.761Z,22.98
2022-09-15T10:06:17.108Z,21.15
2022-09-15T10:08:56.043Z,21.88
2022-09-15T10:11:42.622Z,20.05
2022-09-15T10:14:21.553Z,21.67
2022-09-15T10:17:01.428Z,21.40
2022-09-15T10:19:33.748Z,18.42
2022-09-15T10:22:02.724Z,22.58
2022-09-15T10:24:39.978Z,16.23
2022-09-15T10:27:20.570Z,18.60
2022-09-15T10:29:48.847Z,17.60
2022-09-15T10:32:29.003Z,16.63
2022-09-15T10:35:03.742Z,14.02
2022-09-15T10:38:04.853Z,19.48
2022-09-15T10:40:37.781Z,18.40
2022-09-15T10:43:27.736Z,19.02
2022-09-15T10:46:02.872Z,16.50
2022-09-15T10:48:57.591Z,15.20
2022-09-15T10:51:35.964Z,20.17
2022-09-15T10:54:27.138Z,23.08
2022-09-15T10:57:02.402Z,15.02
2022-09-15T10:59:44.423Z,13.30
2022-09-15T11:02:55.222Z,14.73
2022-09-15T11:05:40.323Z,12.05
2022-09-15T11:08:27.786Z,10.32
2022-09-15T11:11:03.917Z,11.35
2022-09-15T11:13:44.046Z,11.73
2022-09-15T11:16:31.338Z,14.32
2022-09-15T11:19:11.793Z,10.63
2022-09-15T11:21:44.644Z,13.45
2022-09-15T11:24:31.289Z,11.35
2022-09-15T11:27:05.891Z,8.93
2022-09-15T11:29:39.004Z,12.07
2022-09-15T11:32:15.040Z,14.27
2022-09-15T11:34:50.697Z,15.40
2022-09-15T11:37:22.257Z,10.50
2022-09-15T11:39:59.559Z,12.48
2022-09-15T11:42:35.324Z,11.85
2022-09-15T11:47:34.886Z,9.57
2022-09-15T11:50:10.156Z,13.90
2022-09-15T11:52:47.806Z,12.07
2022-09-15T11:55:24.429Z,12.80
2022-09-15T11:58:00.929Z,12.77
2022-09-15T12:00:28.887Z,9.77
2022-09-15T12:03:14.870Z,13.43
2022-09-15T12:05:47.061Z,12.80
2022-09-15T12:08:20.418Z,15.57
2022-09-15T12:10:53.863Z,13.00
2022-09-15T12:13:24.214Z,11.38
2022-09-15T12:15:53.446Z,7.75
2022-09-15T12:18:40.812Z,8.02
2022-09-15T12:21:18.538Z,7.95
2022-09-15T12:23:53.825Z,7.05
2022-09-15T12:26:25.975Z,6.15
2022-09-15T12:28:57.314Z,6.45
2022-09-15T12:31:36.854Z,5.13
2022-09-15T12:34:07.404Z,6.10
2022-09-15T12:36:42.063Z,4.32
2022-09-15T12:39:37.532Z,7.38
2022-09-15T12:42:14.230Z,7.18
2022-09-15T12:44:45.789Z,3.90
2022-09-15T12:47:28.390Z,5.65
2022-09-15T12:49:59.705Z,3.47
2022-09-15T12:52:27.875Z,6.70
2022-09-15T12:54:58.919Z,3.95
2022-09-15T12:57:31.863Z,5.68
2022-09-15T13:00:36.253Z,6.70
2022-09-15T13:03:06.682Z,5.70
2022-09-15T13:06:19.269Z,5.88
2022-09-15T13:08:55.854Z,7.45
2022-09-15T13:11:40.424Z,5.15
2022-09-15T13:14:19.956Z,7.55
2022-09-15T13:16:54.189Z,7.03
2022-09-15T13:19:25.509Z,4.55
2022-09-15T13:22:01.355Z,5.75
2022-09-15T13:24:42.800Z,6.75
2022-09-15T13:27:12.029Z,5.60
2022-09-15T13:29:48.167Z,5.55
2022-09-15T13:32:35.277Z,4.38
2022-09-15T13:35:32.068Z,4.97
2022-09-15T13:38:32.762Z,6.05
2022-09-15T13:41:29.159Z,4.05
2022-09-15T13:44:31.559Z,6.38
2022-09-15T13:47:18.779Z,4.97
2022-09-15T13:49:51.180Z,6.20
2022-09-15T13:52:34.021Z,3.85
2022-09-15T13:55:19.566Z,6.28
2022-09-15T14:00:47.975Z,6.00
2022-09-15T14:03:25.682Z,6.20
2022-09-15T14:05:54.564Z,6.43
2022-09-15T14:08:25.119Z,3.72
2022-09-15T14:10:56.249Z,5.40
2022-09-15T14:13:27.129Z,7.28
2022-09-15T14:16:00.593Z,4.30
2022-09-15T14:18:30.453Z,4.82
2022-09-15T14:21:03.094Z,8.68
2022-09-15T14:23:32.633Z,6.22
2022-09-15T14:26:02.276Z,7.65
2022-09-15T14:28:33.188Z,7.78
2022-09-15T14:31:02.745Z,9.30
2022-09-15T14:33:38.096Z,8.30
2022-09-15T14:36:14.525Z,7.93
2022-09-15T14:38:42.543Z,7.15
2022-09-15T14:41:20.329Z,16.20
2022-09-15T14:43:48.242Z,6.53
2022-09-15T14:46:19.072Z,5.38
2022-09-15T14:48:48.371Z,6.88
2022-09-15T14:51:24.007Z,6.78
2022-09-15T14:53:56.348Z,5.97
2022-09-15T14:56:29.732Z,4.10
2022-09-15T14:59:00.780Z,6.22
2022-09-15T15:01:35.586Z,8.25
2022-09-15T15:04:10.973Z,5.78
2022-09-15T15:06:41.570Z,10.20
2022-09-15T15:09:17.693Z,6.82
2022-09-15T15:11:46.191Z,9.25
2022-09-15T15:14:15.854Z,9.80
2022-09-15T15:16:52.453Z,10.07
2022-09-15T15:19:36.187Z,7.95
2022-09-15T15:22:09.478Z,9.25
2022-09-15T15:24:42.348Z,9.90
2022-09-15T15:27:50.054Z,7.28
2022-09-15T15:30:36.646Z,6.15
2022-09-15T15:33:06.806Z,8.05
2022-09-15T15:35:36.793Z,7.28
2022-09-15T15:38:07.970Z,7.30
2022-09-15T15:40:37.781Z,9.80
2022-09-15T15:43:08.130Z,6.13
2022-09-15T15:45:48.215Z,5.65
2022-09-15T15:48:16.400Z,6.03
2022-09-15T15:50:45.662Z,4.78
2022-09-15T15:53:13.633Z,6.18
2022-09-15T15:55:43.602Z,6.32
2022-09-15T15:58:13.202Z,4.55
2022-09-15T16:00:44.812Z,6.47
2022-09-15T16:03:13.753Z,9.45
2022-09-15T16:05:45.720Z,4.70
2022-09-15T16:08:18.778Z,4.40
2022-09-15T16:10:50.783Z,9.35
2022-09-15T16:13:21.107Z,5.38
2022-09-15T16:15:49.324Z,7.32
2022-09-15T16:18:17.508Z,11.40
2022-09-15T16:20:46.778Z,7.65
2022-09-15T16:23:19.692Z,7.57
2022-09-15T16:25:52.321Z,10.55
2022-09-15T16:28:20.560Z,7.47
2022-09-15T16:30:48.475Z,11.45
2022-09-15T16:33:17.536Z,9.95
2022-09-15T16:35:51.373Z,8.98
2022-09-15T16:38:20.266Z,5.18
2022-09-15T16:40:48.516Z,10.40
2022-09-15T16:43:18.196Z,7.15
2022-09-15T16:45:46.273Z,6.00
2022-09-15T16:48:14.542Z,6.95
2022-09-15T16:51:02.153Z,6.35
2022-09-15T16:53:32.728Z,7.50
2022-09-15T16:56:00.762Z,7.43
2022-09-15T16:58:28.760Z,8.23
2022-09-15T17:00:57.787Z,6.22
2022-09-15T17:03:27.476Z,6.47
2022-09-15T17:05:56.448Z,4.35
2022-09-15T17:08:29.325Z,6.18
2022-09-15T17:11:00.548Z,6.47
2022-09-15T17:13:30.931Z,6.60
2022-09-15T17:15:59.623Z,7.65
2022-09-15T17:18:28.582Z,5.75
2022-09-15T17:20:56.794Z,9.93
2022-09-15T17:23:27.680Z,5.68
2022-09-15T17:25:59.273Z,5.72
2022-09-15T17:28:29.310Z,6.07
2022-09-15T17:30:58.830Z,11.88
2022-09-15T17:33:27.898Z,7.32
2022-09-15T17:35:55.740Z,6.40
2022-09-15T17:38:23.747Z,7.68
2022-09-15T17:40:55.130Z,6.03
2022-09-15T17:43:26.569Z,8.98
2022-09-15T17:45:55.138Z,9.70
2022-09-15T17:48:23.536Z,5.75
2022-09-15T17:50:51.789Z,7.50
2022-09-15T17:53:22.642Z,8.45
2022-09-15T17:55:51.251Z,7.13
2022-09-15T17:58:19.752Z,8.38
2022-09-15T18:00:49.892Z,7.40
2022-09-15T18:03:23.786Z,7.25
2022-09-15T18:05:52.725Z,5.93
2022-09-15T18:08:20.622Z,7.65
2022-09-15T18:10:48.554Z,11.30
2022-09-15T18:13:21.253Z,7.85
2022-09-15T18:15:50.934Z,7.47
2022-09-15T18:18:21.264Z,7.85
2022-09-15T18:20:50.900Z,7.93
2022-09-15T18:23:20.698Z,10.20
2022-09-15T18:25:49.374Z,10.43
2022-09-15T18:28:18.356Z,9.57
2022-09-15T18:30:48.759Z,7.32
2022-09-15T18:33:19.802Z,7.55
2022-09-15T18:35:49.234Z,10.55
2022-09-15T18:38:17.673Z,9.25
2022-09-15T18:40:46.946Z,8.20
2022-09-15T18:43:14.996Z,9.50
2022-09-15T18:45:43.530Z,12.27
2022-09-15T18:48:13.378Z,11.07
2022-09-15T18:50:44.704Z,9.43
2022-09-15T18:53:12.867Z,9.48
2022-09-15T18:55:42.224Z,13.93
2022-09-15T18:58:10.423Z,10.13
2022-09-15T19:00:38.615Z,9.75
2022-09-15T19:03:10.296Z,12.50
2022-09-15T19:05:38.654Z,10.80
2022-09-15T19:08:09.283Z,13.73
2022-09-15T19:10:39.381Z,8.38
2022-09-15T19:13:07.580Z,9.90
2022-09-15T19:15:35.574Z,7.95
2022-09-15T19:18:03.510Z,13.25
2022-09-15T19:20:31.428Z,8.05
2022-09-15T19:22:59.383Z,10.05
2022-09-15T19:25:28.703Z,8.05
2022-09-15T19:27:57.077Z,9.80
2022-09-15T19:30:25.117Z,7.97
2022-09-15T19:32:53.333Z,7.78
2022-09-15T19:35:21.332Z,8.02
2022-09-15T19:37:49.240Z,9.95
2022-09-15T19:40:17.794Z,12.55
2022-09-15T19:42:47.216Z,7.18
2022-09-15T19:45:15.179Z,7.88
2022-09-15T19:47:43.211Z,8.40
2022-09-15T19:50:12.884Z,9.68
2022-09-15T19:52:40.801Z,10.25
2022-09-15T19:55:09.768Z,10.57
2022-09-15T19:57:39.922Z,9.60
2022-09-15T20:00:12.328Z,13.40
2022-09-15T20:02:40.466Z,9.27
2022-09-15T20:05:09.677Z,12.82
2022-09-15T20:07:37.832Z,8.23
2022-09-15T20:10:06.523Z,7.75
2022-09-15T20:12:34.452Z,11.23
2022-09-15T20:15:02.417Z,7.47
2022-09-15T20:17:31.755Z,6.78
2022-09-15T20:19:59.693Z,6.97
2022-09-15T20:22:27.667Z,6.70
2022-09-15T20:24:57.717Z,9.02
2022-09-15T20:27:25.860Z,9.10
2022-09-15T20:29:53.752Z,6.35
2022-09-15T20:32:26.203Z,4.97
2022-09-15T20:34:58.820Z,11.18
2022-09-15T20:37:26.703Z,7.38
2022-09-15T20:39:54.633Z,7.65
2022-09-15T20:42:22.551Z,10.88
2022-09-15T20:44:50.416Z,4.43
2022-09-15T20:47:18.800Z,14.23
2022-09-15T20:49:46.703Z,6.03
2022-09-15T20:52:15.995Z,6.10
2022-09-15T20:54:44.067Z,7.88
2022-09-15T20:57:12.037Z,4.95
2022-09-15T20:59:39.895Z,6.50
2022-09-15T21:02:08.150Z,5.93
2022-09-15T21:04:36.506Z,5.40
2022-09-15T21:07:04.751Z,5.57
2022-09-15T21:09:33.955Z,5.50
2022-09-15T21:12:01.964Z,6.35
2022-09-15T21:14:30.031Z,5.10
2022-09-15T21:16:57.871Z,6.80
2022-09-15T21:19:25.814Z,9.70
2022-09-15T21:21:54.667Z,5.30
2022-09-15T21:24:22.653Z,4.88
2022-09-15T21:27:10.897Z,6.25
2022-09-15T21:29:38.884Z,6.00
2022-09-15T21:32:07.302Z,5.88
2022-09-15T21:34:35.205Z,7.53
2022-09-15T21:37:03.136Z,8.77
2022-09-15T21:39:30.965Z,6.80
2022-09-15T21:42:00.194Z,4.35
2022-09-15T21:44:28.098Z,6.20
2022-09-15T21:46:56.005Z,4.60
2022-09-15T21:49:24.054Z,4.18
2022-09-15T21:51:52.048Z,5.70
2022-09-15T21:54:19.978Z,7.00
2022-09-15T21:56:47.956Z,4.72
2022-09-15T21:59:18.333Z,4.35
2022-09-15T22:01:46.265Z,5.15
2022-09-15T22:04:14.234Z,5.65
2022-09-15T22:06:42.626Z,8.38
2022-09-15T22:09:13.823Z,4.28
2022-09-15T22:11:42.305Z,5.35
2022-09-15T22:14:11.808Z,8.80
2022-09-15T22:16:42.751Z,4.22
2022-09-15T22:19:12.317Z,5.82
2022-09-15T22:21:42.039Z,5.82
2022-09-15T22:24:12.624Z,4.88
2022-09-15T22:26:42.124Z,3.97
2022-09-15T22:29:10.337Z,5.60
2022-09-15T22:31:39.881Z,9.23
2022-09-15T22:34:07.754Z,3.88
2022-09-15T22:36:36.165Z,3.88
2022-09-15T22:39:05.533Z,6.55
2022-09-15T22:41:35.456Z,4.43
2022-09-15T22:44:04.389Z,5.05
2022-09-15T22:46:32.679Z,7.63
2022-09-15T22:49:02.490Z,5.32
2022-09-15T22:51:30.544Z,4.72
2022-09-15T22:54:03.451Z,6.32
2022-09-15T22:56:31.564Z,4.07
2022-09-15T22:58:59.956Z,4.43
2022-09-15T23:01:29.576Z,5.50
2022-09-15T23:03:59.279Z,4.97
2022-09-15T23:06:31.477Z,4.82
2022-09-15T23:09:01.513Z,5.13
2022-09-15T23:11:32.345Z,9.00
2022-09-15T23:14:00.761Z,4.30
2022-09-15T23:16:29.608Z,4.65
2022-09-15T23:18:58.270Z,5.95
2022-09-15T23:21:28.293Z,5.75
2022-09-15T23:23:56.218Z,6.97
2022-09-15T23:26:25.379Z,7.40
2022-09-15T23:28:53.933Z,6.38
2022-09-15T23:31:22.142Z,6.88
2022-09-15T23:33:50.050Z,6.95
2022-09-15T23:36:20.139Z,6.78
2022-09-15T23:38:50.120Z,5.70
2022-09-15T23:41:19.190Z,5.88
2022-09-15T23:43:47.391Z,12.38
2022-09-15T23:46:15.732Z,6.13
2022-09-15T23:48:44.138Z,5.90
2022-09-15T23:51:12.055Z,5.07
2022-09-15T23:53:40.086Z,5.88
2022-09-15T23:56:09.482Z,4.70
2022-09-15T23:58:37.757Z,8.30
